Time;durP1;ratioP1;P1;durP2;ratioP2;P2;SDS_P1;SDS_P2;PMS_P1;PMS_P2;Temp;Humidity;BMP_temperature;BMP_pressure;BME280_temperature;BME280_humidity;BME280_pressure;Samples;Min_cycle;Max_cycle;Signal;HPM_P1;HPM_P2
2022/08/12 00:43:11;;;;;;;0.85;0.60;;;15.20;99.90;;;;;;5033372;28;20197;-76
2022/08/12 00:48:27;;;;;;;13.15;8.82;;;15.20;99.90;;;;;;5031406;28;20194;-77
2022/08/12 00:50:59;;;;;;;5.07;3.38;;;15.20;99.90;;;;;;5028220;28;20733;-73
2022/08/12 00:53:31;;;;;;;5.35;2.30;;;15.30;99.90;;;;;;5027835;28;20593;-73
2022/08/12 00:56:03;;;;;;;1.05;0.80;;;15.20;99.90;;;;;;5030694;28;20268;-77
2022/08/12 00:58:35;;;;;;;1.75;0.63;;;15.30;99.90;;;;;;5028580;28;20206;-71
2022/08/12 01:01:09;;;;;;;1.77;0.75;;;15.20;99.90;;;;;;5026884;28;20212;-73
2022/08/12 01:12:03;;;;;;;1.00;0.60;;;15.10;99.90;;;;;;5026116;28;20293;-78
2022/08/12 01:14:35;;;;;;;0.80;0.68;;;15.10;99.90;;;;;;5025565;28;20201;-77
2022/08/12 01:17:06;;;;;;;1.35;0.80;;;15.10;99.90;;;;;;5025847;28;20198;-78
2022/08/12 01:19:39;;;;;;;0.88;0.77;;;15.00;99.90;;;;;;5027495;28;20190;-77
2022/08/12 01:22:24;;;;;;;0.68;0.63;;;15.00;99.90;;;;;;5026676;28;20200;-77
2022/08/12 01:25:06;;;;;;;0.90;0.60;;;15.00;99.90;;;;;;5026494;28;20644;-75
2022/08/12 01:27:39;;;;;;;0.93;0.60;;;14.90;99.90;;;;;;5029449;28;20194;-75
2022/08/12 01:30:12;;;;;;;0.85;0.70;;;15.00;99.90;;;;;;5029615;28;20198;-71
2022/08/12 01:32:44;;;;;;;0.70;0.70;;;15.00;99.90;;;;;;5028378;28;20215;-75
2022/08/12 01:35:16;;;;;;;2.00;0.70;;;15.00;99.90;;;;;;5025908;28;20298;-78
2022/08/12 01:37:53;;;;;;;1.40;0.75;;;15.00;99.90;;;;;;5024743;28;20206;-78
2022/08/12 01:40:29;;;;;;;0.60;0.60;;;15.10;99.90;;;;;;5025667;28;20194;-77
2022/08/12 01:43:04;;;;;;;2.00;0.85;;;15.10;99.90;;;;;;5029219;28;20197;-76
2022/08/12 01:45:36;;;;;;;0.70;0.70;;;15.10;99.90;;;;;;5028873;28;20202;-77
2022/08/12 01:48:16;;;;;;;0.98;0.60;;;15.10;99.90;;;;;;5029451;28;20202;-77
2022/08/12 01:51:01;;;;;;;1.10;0.70;;;15.10;99.90;;;;;;5031021;28;20281;-78
2022/08/12 01:53:43;;;;;;;0.88;0.80;;;15.00;99.90;;;;;;5026083;28;20596;-77
2022/08/12 01:56:17;;;;;;;1.17;0.63;;;15.10;99.90;;;;;;5031348;28;20197;-74
2022/08/12 02:01:39;;;;;;;0.90;0.68;;;15.10;99.90;;;;;;5028302;28;20236;-78
2022/08/12 02:13:09;;;;;;;0.50;0.50;;;15.30;99.90;;;;;;5014886;28;20221;-78
2022/08/12 02:15:47;;;;;;;0.88;0.60;;;15.30;99.90;;;;;;5028385;28;20204;-78
2022/08/12 02:18:27;;;;;;;0.60;0.60;;;15.30;99.90;;;;;;5029211;28;20228;-77
2022/08/12 02:21:05;;;;;;;2.85;0.52;;;15.30;99.90;;;;;;5017534;28;20230;-77
2022/08/12 02:23:37;;;;;;;1.20;0.55;;;15.40;99.90;;;;;;5012695;28;20603;-78
2022/08/12 02:26:10;;;;;;;0.80;0.57;;;15.40;99.90;;;;;;5020495;28;20206;-76
2022/08/12 02:28:43;;;;;;;0.98;0.60;;;15.50;99.90;;;;;;5032581;28;20193;-78
2022/08/12 02:31:14;;;;;;;1.10;0.60;;;15.50;99.90;;;;;;5030318;28;20213;-78
2022/08/12 02:33:47;;;;;;;1.95;0.68;;;15.60;99.90;;;;;;5031208;28;20218;-77
2022/08/12 02:36:17;;;;;;;0.60;0.60;;;15.50;99.90;;;;;;5021957;28;20221;-78
2022/08/12 02:38:51;;;;;;;2.53;0.65;;;15.50;99.90;;;;;;5030830;28;20234;-77
2022/08/12 02:41:26;;;;;;;1.73;0.80;;;15.50;99.90;;;;;;5027355;28;20293;-78
2022/08/12 02:44:06;;;;;;;0.95;0.60;;;15.50;99.90;;;;;;5030771;28;20190;-77
2022/08/12 02:46:37;;;;;;;1.58;0.70;;;15.50;99.90;;;;;;5031330;28;20199;-78
2022/08/12 02:49:13;;;;;;;2.17;0.80;;;15.50;99.90;;;;;;5031615;28;20187;-79
2022/08/12 02:51:45;;;;;;;1.17;0.80;;;15.60;99.90;;;;;;5031009;28;20198;-78
2022/08/12 02:54:16;;;;;;;1.13;0.70;;;15.60;99.90;;;;;;5031605;28;20873;-77
2022/08/12 02:56:47;;;;;;;1.00;0.80;;;15.80;99.90;;;;;;5029156;28;20194;-78
2022/08/12 02:59:21;;;;;;;1.80;0.88;;;15.90;99.90;;;;;;5020423;28;20186;-78
2022/08/12 03:01:54;;;;;;;1.10;0.80;;;16.10;99.90;;;;;;5030200;28;20206;-75
2022/08/12 03:04:31;;;;;;;1.00;0.90;;;16.20;99.90;;;;;;5029522;28;20202;-78
2022/08/12 03:07:13;;;;;;;0.85;0.80;;;16.30;99.90;;;;;;5031063;28;20206;-78
2022/08/12 03:09:50;;;;;;;1.42;0.80;;;16.30;99.90;;;;;;5031356;28;20202;-78
2022/08/12 03:12:22;;;;;;;1.38;0.60;;;16.30;99.90;;;;;;5030425;28;20182;-78
2022/08/12 03:14:55;;;;;;;0.70;0.70;;;16.30;99.90;;;;;;5032254;28;20214;-75
2022/08/12 03:17:33;;;;;;;2.42;0.77;;;16.30;99.90;;;;;;5023529;28;20276;-79
2022/08/12 03:20:05;;;;;;;1.80;0.80;;;16.30;99.90;;;;;;5031024;28;20683;-75
2022/08/12 03:22:39;;;;;;;1.48;0.65;;;16.30;99.90;;;;;;5032001;28;20186;-77
2022/08/12 03:25:17;;;;;;;1.90;0.90;;;16.20;99.90;;;;;;5033035;28;20198;-73
2022/08/12 03:27:54;;;;;;;0.70;0.70;;;16.30;99.90;;;;;;5034606;28;20197;-74
2022/08/12 03:30:30;;;;;;;2.03;0.82;;;16.30;99.90;;;;;;5030494;28;20201;-71
2022/08/12 03:33:02;;;;;;;1.65;0.80;;;16.20;99.90;;;;;;5028920;28;20216;-74
2022/08/12 03:35:36;;;;;;;0.80;0.73;;;16.10;99.90;;;;;;5027955;28;20705;-71
2022/08/12 03:38:10;;;;;;;2.63;0.90;;;16.00;99.90;;;;;;5032831;28;20190;-74
2022/08/12 04:00:45;;;;;;;1.00;0.65;;;15.80;99.90;;;;;;5034150;28;20232;-73
2022/08/12 04:06:04;;;;;;;1.65;1.00;;;15.80;99.90;;;;;;5034245;28;20572;-74
2022/08/12 04:08:35;;;;;;;0.98;0.80;;;15.80;99.90;;;;;;5032985;28;20212;-76
2022/08/12 04:13:54;;;;;;;3.85;1.20;;;15.80;99.90;;;;;;5028157;28;20236;-75
2022/08/12 04:16:25;;;;;;;1.25;0.93;;;15.70;99.90;;;;;;5033267;28;20263;-73
2022/08/12 04:18:58;;;;;;;0.95;0.80;;;15.70;99.90;;;;;;5014437;28;20191;-70
2022/08/12 04:21:31;;;;;;;2.17;1.20;;;15.70;99.90;;;;;;5014493;28;20202;-70
2022/08/12 04:24:02;;;;;;;1.38;0.90;;;15.70;99.90;;;;;;5014139;28;20191;-77
2022/08/12 04:26:34;;;;;;;2.10;0.77;;;15.70;99.90;;;;;;5032358;28;20201;-78
2022/08/12 04:29:05;;;;;;;1.30;0.95;;;15.70;99.90;;;;;;5034275;28;20638;-76
2022/08/12 04:31:37;;;;;;;0.82;0.73;;;15.70;99.90;;;;;;5031582;28;20213;-78
2022/08/12 04:34:11;;;;;;;1.30;0.70;;;15.70;99.90;;;;;;5027691;28;20226;-75
2022/08/12 04:36:42;;;;;;;0.95;0.77;;;15.70;99.90;;;;;;5026771;28;20721;-77
2022/08/12 04:39:14;;;;;;;2.15;0.90;;;15.70;99.90;;;;;;5013921;28;20605;-76
2022/08/12 04:41:45;;;;;;;0.70;0.70;;;15.70;99.90;;;;;;5032213;28;20206;-78
2022/08/12 04:44:15;;;;;;;1.85;0.70;;;15.60;99.90;;;;;;5032950;28;20205;-78
2022/08/12 04:46:46;;;;;;;1.10;0.80;;;15.60;99.90;;;;;;5032548;28;20198;-78
2022/08/12 04:49:19;;;;;;;3.17;1.10;;;15.70;99.90;;;;;;5030674;28;20201;-77
2022/08/12 04:51:50;;;;;;;0.82;0.70;;;15.60;99.90;;;;;;5026717;28;20198;-77
2022/08/12 04:54:21;;;;;;;1.42;0.90;;;15.60;99.90;;;;;;5029443;28;20707;-76
2022/08/12 04:56:54;;;;;;;2.88;1.10;;;15.70;99.90;;;;;;5033575;28;20190;-78
2022/08/12 04:59:25;;;;;;;1.52;0.90;;;15.60;99.90;;;;;;5032783;28;20198;-77
2022/08/12 05:01:56;;;;;;;1.50;0.90;;;15.60;99.90;;;;;;5032207;28;20194;-77
2022/08/12 05:04:30;;;;;;;2.17;0.80;;;15.60;99.90;;;;;;5033305;28;20209;-77
2022/08/12 05:07:01;;;;;;;2.00;0.95;;;15.60;99.90;;;;;;5032691;28;20653;-77
2022/08/12 05:09:32;;;;;;;2.10;1.02;;;15.60;99.90;;;;;;5028455;28;20198;-77
2022/08/12 05:12:04;;;;;;;1.33;0.70;;;15.60;99.90;;;;;;5032149;28;20201;-75
2022/08/12 05:14:34;;;;;;;1.38;0.90;;;15.60;99.90;;;;;;5038543;28;20218;-77
2022/08/12 05:17:05;;;;;;;0.98;0.77;;;15.60;99.90;;;;;;5033183;28;20243;-77
2022/08/12 05:19:38;;;;;;;1.00;0.65;;;15.60;99.90;;;;;;5031953;28;20201;-77
2022/08/12 05:22:09;;;;;;;0.60;0.60;;;15.60;99.90;;;;;;5041851;28;20209;-76
2022/08/12 05:24:39;;;;;;;1.35;0.70;;;15.60;99.90;;;;;;5047173;28;20201;-77
2022/08/12 05:27:10;;;;;;;1.10;0.60;;;15.60;99.90;;;;;;5048383;28;20197;-77
2022/08/12 05:29:41;;;;;;;0.65;0.65;;;15.50;99.90;;;;;;5030818;28;20194;-76
2022/08/12 05:32:19;;;;;;;0.50;0.50;;;15.60;99.90;;;;;;5030949;28;20195;-77
2022/08/12 05:34:52;;;;;;;0.68;0.60;;;15.50;99.90;;;;;;5031837;28;20217;-78
2022/08/12 05:37:23;;;;;;;0.80;0.70;;;15.50;99.90;;;;;;5034254;28;20201;-76
2022/08/12 05:39:54;;;;;;;0.73;0.50;;;15.50;99.90;;;;;;5049130;28;20237;-77
2022/08/12 05:42:25;;;;;;;1.85;0.68;;;15.50;99.90;;;;;;5041220;28;20216;-77
2022/08/12 05:44:56;;;;;;;1.05;0.70;;;15.40;99.90;;;;;;5032425;28;20194;-77
2022/08/12 05:47:27;;;;;;;1.67;0.60;;;15.40;99.90;;;;;;5033961;28;20195;-78
2022/08/12 05:50:00;;;;;;;0.47;0.47;;;15.40;99.90;;;;;;5030033;28;20250;-78
2022/08/12 05:52:31;;;;;;;0.90;0.57;;;15.40;99.90;;;;;;5044801;28;20205;-77
2022/08/12 05:55:02;;;;;;;0.70;0.70;;;15.40;99.90;;;;;;5052486;28;20217;-77
2022/08/12 05:57:32;;;;;;;0.60;0.50;;;15.40;99.90;;;;;;5015774;28;20199;-76
2022/08/12 06:00:03;;;;;;;0.85;0.50;;;15.30;99.90;;;;;;5022231;28;20197;-79
2022/08/12 06:02:35;;;;;;;0.80;0.70;;;15.30;99.90;;;;;;5030854;28;20563;-76
2022/08/12 06:05:09;;;;;;;1.42;1.13;;;15.30;99.90;;;;;;5049234;28;20189;-77
2022/08/12 06:07:44;;;;;;;1.27;0.93;;;15.30;99.90;;;;;;5031149;28;20202;-77
2022/08/12 06:10:14;;;;;;;1.67;1.38;;;15.20;99.90;;;;;;5023751;28;20255;-77
2022/08/12 06:12:48;;;;;;;1.60;1.10;;;15.20;99.90;;;;;;5034455;28;20198;-76
2022/08/12 06:15:18;;;;;;;2.35;1.00;;;15.20;99.90;;;;;;5030944;28;20222;-77
2022/08/12 06:17:50;;;;;;;1.55;1.00;;;15.20;99.90;;;;;;5027490;28;20196;-78
2022/08/12 06:20:22;;;;;;;1.10;0.98;;;15.20;99.90;;;;;;5024564;28;20197;-79
2022/08/12 06:22:53;;;;;;;1.45;0.80;;;15.10;99.90;;;;;;5029196;28;20209;-78
2022/08/12 06:25:27;;;;;;;1.45;0.70;;;15.10;99.90;;;;;;5029269;28;20206;-78
2022/08/12 06:28:02;;;;;;;1.08;0.82;;;15.20;99.90;;;;;;5016632;28;20200;-78
2022/08/12 06:30:34;;;;;;;0.85;0.82;;;15.20;99.90;;;;;;5022129;28;20208;-78
2022/08/12 06:33:05;;;;;;;1.20;1.10;;;15.10;99.90;;;;;;5029817;28;20194;-78
2022/08/12 06:35:39;;;;;;;1.55;0.90;;;15.10;99.90;;;;;;5026546;28;20233;-78
2022/08/12 06:38:19;;;;;;;1.42;1.00;;;15.10;99.90;;;;;;5026207;28;20194;-78
2022/08/12 06:43:38;;;;;;;1.58;1.48;;;15.10;99.90;;;;;;5029882;28;20203;-73
2022/08/12 06:46:09;;;;;;;2.00;1.58;;;15.00;99.90;;;;;;5030036;28;20684;-78
2022/08/12 06:48:41;;;;;;;2.88;1.40;;;15.00;99.90;;;;;;5044129;28;20197;-78
2022/08/12 06:51:14;;;;;;;4.45;1.10;;;14.90;99.90;;;;;;5028308;28;20721;-76
2022/08/12 06:53:45;;;;;;;1.90;1.00;;;14.90;99.90;;;;;;5030801;28;20204;-76
2022/08/12 06:56:17;;;;;;;1.17;1.00;;;14.90;99.90;;;;;;5031466;28;20680;-78
2022/08/12 06:58:48;;;;;;;2.97;1.25;;;14.90;99.90;;;;;;5034696;28;20194;-79
2022/08/12 07:01:18;;;;;;;1.77;1.10;;;14.80;99.90;;;;;;5032000;28;20195;-70
2022/08/12 07:03:50;;;;;;;2.58;1.15;;;14.80;99.90;;;;;;5030645;28;20205;-72
2022/08/12 07:06:22;;;;;;;1.52;1.20;;;14.80;99.90;;;;;;5029003;28;20198;-74
2022/08/12 07:08:53;;;;;;;2.03;1.30;;;14.80;99.90;;;;;;5028064;28;20221;-73
2022/08/12 07:11:24;;;;;;;1.90;1.45;;;14.80;99.90;;;;;;5027873;28;20202;-74
2022/08/12 07:13:57;;;;;;;2.40;1.67;;;14.80;99.90;;;;;;5025702;28;20206;-72
2022/08/12 07:16:51;;;;;;;2.15;1.58;;;14.70;99.90;;;;;;5025554;28;20681;-77
2022/08/12 07:19:19;;;;;;;3.22;1.88;;;14.70;99.90;;;;;;5029038;28;20202;-76
2022/08/12 07:21:52;;;;;;;1.90;1.70;;;14.70;99.90;;;;;;5032601;28;20195;-73
2022/08/12 07:24:22;;;;;;;1.55;1.45;;;14.70;99.90;;;;;;5029995;28;20676;-76
2022/08/12 07:26:53;;;;;;;2.28;1.50;;;14.60;99.90;;;;;;5031467;28;20561;-77
2022/08/12 07:29:24;;;;;;;2.10;1.42;;;14.60;99.90;;;;;;5027475;28;20213;-73
2022/08/12 07:31:58;;;;;;;2.55;1.50;;;14.60;99.90;;;;;;5028970;28;20202;-76
2022/08/12 07:34:29;;;;;;;3.08;1.65;;;14.60;99.90;;;;;;5028847;28;20210;-72
2022/08/12 07:37:01;;;;;;;2.50;1.55;;;14.60;99.90;;;;;;5028563;28;20202;-72
2022/08/12 07:39:32;;;;;;;2.80;1.73;;;14.60;99.90;;;;;;5027186;28;20701;-76
2022/08/12 07:42:04;;;;;;;1.80;1.60;;;14.50;99.90;;;;;;5024383;28;20395;-71
2022/08/12 07:44:35;;;;;;;2.80;1.73;;;14.50;99.90;;;;;;5023305;28;20202;-77
2022/08/12 07:47:06;;;;;;;2.63;1.90;;;14.50;99.90;;;;;;5033967;28;20201;-76
2022/08/12 07:49:37;;;;;;;3.63;1.73;;;14.50;99.90;;;;;;5031766;28;20217;-77
2022/08/12 07:52:10;;;;;;;2.97;2.20;;;14.50;99.90;;;;;;5027144;28;20198;-75
2022/08/12 07:54:41;;;;;;;2.13;1.85;;;14.50;99.90;;;;;;5032516;28;20214;-77
2022/08/12 07:57:14;;;;;;;3.15;1.90;;;14.50;99.90;;;;;;5025453;28;20198;-76
2022/08/12 07:59:44;;;;;;;2.67;2.00;;;14.40;99.90;;;;;;5024793;28;20206;-77
2022/08/12 08:02:15;;;;;;;2.40;2.20;;;14.50;99.90;;;;;;5027669;28;20190;-76
2022/08/12 08:04:59;;;;;;;2.25;2.05;;;14.40;99.90;;;;;;5032992;28;20202;-74
2022/08/12 08:07:32;;;;;;;2.33;2.13;;;14.40;99.90;;;;;;5036494;28;20666;-74
2022/08/12 08:10:07;;;;;;;2.45;2.13;;;14.40;99.90;;;;;;5037537;28;20202;-75
2022/08/12 08:12:57;;;;;;;2.55;2.10;;;14.30;99.90;;;;;;5027839;28;20241;-76
2022/08/12 08:15:33;;;;;;;5.38;3.53;;;14.30;99.90;;;;;;5031569;28;20240;-74
2022/08/12 08:18:08;;;;;;;31.20;21.80;;;14.30;99.90;;;;;;5028335;28;20561;-74
2022/08/12 08:20:40;;;;;;;41.85;30.95;;;14.30;99.90;;;;;;5034974;28;20602;-76
2022/08/12 08:23:17;;;;;;;40.63;29.02;;;14.30;99.90;;;;;;5033799;28;20188;-76
2022/08/12 08:25:48;;;;;;;7.10;5.22;;;14.30;99.90;;;;;;5030631;28;20193;-76
2022/08/12 08:28:20;;;;;;;3.80;2.63;;;14.30;99.90;;;;;;5028909;28;20198;-74
2022/08/12 08:30:51;;;;;;;3.05;2.47;;;14.20;99.90;;;;;;5027729;28;20236;-73
2022/08/12 08:33:22;;;;;;;3.55;2.28;;;14.30;99.90;;;;;;5039974;28;20527;-75
2022/08/12 08:35:53;;;;;;;3.13;2.50;;;14.30;99.90;;;;;;5030664;28;20316;-76
2022/08/12 08:38:25;;;;;;;3.50;2.33;;;14.20;99.90;;;;;;5026184;28;20232;-75
2022/08/12 08:43:43;;;;;;;3.97;2.55;;;14.20;99.90;;;;;;5030533;28;20319;-76
2022/08/12 08:46:14;;;;;;;3.00;2.47;;;14.20;99.90;;;;;;5038000;28;20214;-77
2022/08/12 08:48:45;;;;;;;3.63;2.35;;;14.20;99.90;;;;;;5032761;28;21197;-76
2022/08/12 08:51:15;;;;;;;4.28;2.40;;;14.20;99.90;;;;;;5024713;28;20195;-76
2022/08/12 08:53:48;;;;;;;3.50;2.70;;;14.20;99.90;;;;;;5024591;28;20206;-76
2022/08/12 08:56:19;;;;;;;3.00;2.50;;;14.10;99.90;;;;;;5031551;28;20581;-77
2022/08/12 08:58:49;;;;;;;3.15;2.53;;;14.10;99.90;;;;;;5034360;28;20252;-71
2022/08/12 09:01:21;;;;;;;2.53;2.28;;;14.10;99.90;;;;;;5031536;28;20202;-76
2022/08/12 09:03:52;;;;;;;3.20;2.45;;;14.10;99.90;;;;;;5030962;28;20252;-76
2022/08/12 09:06:23;;;;;;;2.78;2.35;;;14.10;99.90;;;;;;5032782;28;20226;-77
2022/08/12 09:08:55;;;;;;;2.55;2.22;;;14.10;99.90;;;;;;5043663;28;20204;-76
2022/08/12 09:14:13;;;;;;;4.15;2.67;;;14.10;99.90;;;;;;5020265;28;20205;-72
2022/08/12 09:16:44;;;;;;;4.70;2.70;;;14.10;99.90;;;;;;5024987;28;20204;-76
2022/08/12 09:19:16;;;;;;;3.65;2.60;;;14.00;99.90;;;;;;5027953;28;20198;-77
2022/08/12 09:21:47;;;;;;;5.07;3.05;;;14.00;99.90;;;;;;5037718;28;20643;-74
2022/08/12 09:24:20;;;;;;;3.58;2.72;;;14.00;99.90;;;;;;5046688;28;20205;-76
2022/08/12 09:26:51;;;;;;;3.38;2.80;;;14.00;99.90;;;;;;5024786;28;20198;-74
2022/08/12 09:29:22;;;;;;;5.25;3.03;;;14.00;99.90;;;;;;5021268;28;20201;-76
2022/08/12 09:31:53;;;;;;;4.50;3.28;;;14.00;99.90;;;;;;5038839;28;20206;-75
2022/08/12 09:34:28;;;;;;;3.33;2.88;;;14.00;99.90;;;;;;5033202;28;20210;-76
2022/08/12 09:37:00;;;;;;;4.22;3.10;;;13.90;99.90;;;;;;5032699;28;20731;-75
2022/08/12 09:39:33;;;;;;;3.70;2.90;;;13.90;99.90;;;;;;5031340;28;20269;-77
2022/08/12 09:47:44;;;;;;;3.22;2.92;;;13.90;99.90;;;;;;5030717;28;20228;-75
2022/08/12 09:50:16;;;;;;;3.33;2.85;;;13.90;99.90;;;;;;5028483;28;20200;-77
2022/08/12 09:52:51;;;;;;;3.15;2.80;;;13.90;99.90;;;;;;5025214;28;20197;-76
2022/08/12 09:55:25;;;;;;;3.72;2.70;;;13.90;99.90;;;;;;5028761;28;20220;-73
2022/08/12 09:57:56;;;;;;;3.38;2.80;;;13.90;99.90;;;;;;5035114;28;20359;-76
2022/08/12 10:00:26;;;;;;;3.22;2.63;;;13.90;99.90;;;;;;5030676;28;20665;-75
2022/08/12 10:03:05;;;;;;;2.85;2.50;;;13.90;99.90;;;;;;5032946;28;20203;-75
2022/08/12 10:05:39;;;;;;;4.47;3.13;;;13.90;99.90;;;;;;5028978;28;20215;-76
2022/08/12 10:08:12;;;;;;;5.20;3.00;;;13.90;99.90;;;;;;5031075;28;20204;-74
2022/08/12 10:13:45;;;;;;;4.40;2.90;;;13.90;99.90;;;;;;5025180;28;20195;-76
2022/08/12 10:16:17;;;;;;;3.65;3.25;;;13.90;99.90;;;;;;5030199;28;20249;-72
2022/08/12 10:18:49;;;;;;;3.55;3.10;;;13.80;99.90;;;;;;5027328;28;20205;-76
2022/08/12 10:21:24;;;;;;;4.88;3.30;;;13.90;99.90;;;;;;5027333;28;20208;-75
2022/08/12 10:23:55;;;;;;;4.30;3.45;;;13.80;99.90;;;;;;5039561;28;20201;-74
2022/08/12 10:32:02;;;;;;;4.30;3.20;;;13.90;99.90;;;;;;5018594;28;20213;-76
2022/08/12 10:34:33;;;;;;;4.60;3.08;;;13.90;99.90;;;;;;5044085;28;20236;-76
2022/08/12 10:37:05;;;;;;;4.45;3.30;;;13.90;99.90;;;;;;5035939;28;20210;-73
2022/08/12 10:39:38;;;;;;;3.42;3.10;;;13.90;99.90;;;;;;5033292;28;20238;-76
2022/08/12 10:44:59;;;;;;;4.85;3.25;;;13.90;99.90;;;;;;5033846;28;20255;-75
2022/08/12 10:47:31;;;;;;;3.92;3.10;;;13.90;99.90;;;;;;5030698;28;20653;-76
2022/08/12 10:50:04;;;;;;;3.58;3.28;;;13.90;99.90;;;;;;5024438;28;20221;-72
2022/08/12 10:52:39;;;;;;;4.10;3.20;;;13.90;99.90;;;;;;5032202;28;20210;-75
2022/08/12 10:55:13;;;;;;;3.85;2.92;;;13.90;99.90;;;;;;5030655;28;20206;-72
2022/08/12 10:57:46;;;;;;;3.67;3.13;;;13.80;99.90;;;;;;5029778;28;20202;-72
2022/08/12 11:00:17;;;;;;;4.38;3.30;;;13.80;99.90;;;;;;5028427;28;20226;-76
2022/08/12 11:02:53;;;;;;;4.13;3.47;;;13.80;99.90;;;;;;5028337;28;20569;-76
2022/08/12 11:05:24;;;;;;;4.43;3.08;;;13.80;99.90;;;;;;5032041;28;20210;-75
2022/08/12 11:07:55;;;;;;;3.90;3.38;;;13.80;99.90;;;;;;5024750;28;20197;-77
2022/08/12 11:10:25;;;;;;;3.92;3.50;;;13.80;99.90;;;;;;5027832;28;20217;-76
2022/08/12 11:12:58;;;;;;;3.85;3.28;;;13.90;99.90;;;;;;5027807;28;20564;-76
2022/08/12 11:15:29;;;;;;;4.97;4.10;;;13.80;99.90;;;;;;5029601;28;20210;-72
2022/08/12 11:18:00;;;;;;;6.85;4.70;;;13.80;99.90;;;;;;5029449;28;20303;-75
2022/08/12 11:20:30;;;;;;;4.10;3.70;;;13.80;99.90;;;;;;5030252;28;20230;-76
2022/08/12 11:23:02;;;;;;;4.30;3.90;;;13.80;99.90;;;;;;5028885;28;20662;-77
2022/08/12 11:25:33;;;;;;;4.95;3.83;;;13.80;99.90;;;;;;5028777;28;20233;-75
2022/08/12 11:28:06;;;;;;;5.40;4.32;;;13.80;99.90;;;;;;5033531;28;20202;-72
2022/08/12 11:30:36;;;;;;;5.57;3.75;;;13.80;99.90;;;;;;5034651;28;20281;-73
2022/08/12 11:33:08;;;;;;;4.95;4.13;;;13.70;99.90;;;;;;5034305;28;20194;-76
2022/08/12 11:35:40;;;;;;;6.15;4.35;;;13.70;99.90;;;;;;5023229;28;20230;-76
2022/08/12 11:38:11;;;;;;;7.35;4.03;;;13.70;99.90;;;;;;5028467;28;20785;-77
2022/08/12 11:40:42;;;;;;;4.95;4.03;;;13.70;99.90;;;;;;5023643;28;20234;-76
2022/08/12 11:43:14;;;;;;;5.68;4.03;;;13.70;99.90;;;;;;5029258;28;20197;-76
2022/08/12 11:45:45;;;;;;;5.20;4.18;;;13.70;99.90;;;;;;5031286;28;20190;-76
2022/08/12 11:48:16;;;;;;;5.63;4.10;;;13.60;99.90;;;;;;5029082;28;20588;-76
2022/08/12 11:50:47;;;;;;;5.40;4.32;;;13.70;99.90;;;;;;5029057;28;20194;-76
2022/08/12 11:53:18;;;;;;;6.35;4.30;;;13.70;99.90;;;;;;5031676;28;20186;-76
2022/08/12 11:55:48;;;;;;;5.45;4.35;;;13.60;99.90;;;;;;5033383;28;20218;-76
2022/08/12 11:58:21;;;;;;;6.03;4.53;;;13.60;99.90;;;;;;5040781;28;20194;-75
2022/08/12 12:00:52;;;;;;;6.90;4.97;;;13.50;99.90;;;;;;5026981;28;20198;-74
2022/08/12 12:03:23;;;;;;;6.35;4.63;;;13.50;99.90;;;;;;5031237;28;20650;-76
2022/08/12 12:05:54;;;;;;;5.88;4.95;;;13.60;99.90;;;;;;5034719;28;20194;-75
2022/08/12 12:08:25;;;;;;;6.95;4.80;;;13.50;99.90;;;;;;5035560;28;20211;-75
2022/08/12 12:10:56;;;;;;;7.45;4.88;;;13.50;99.90;;;;;;5034364;28;20661;-74
2022/08/12 12:13:29;;;;;;;7.32;5.15;;;13.50;99.90;;;;;;5044489;28;20202;-75
2022/08/12 12:15:59;;;;;;;6.68;5.22;;;13.50;99.90;;;;;;5036185;28;20218;-77
2022/08/12 12:18:33;;;;;;;6.40;5.63;;;13.50;99.90;;;;;;5028548;28;20205;-76
2022/08/12 12:21:05;;;;;;;8.00;5.47;;;13.50;99.90;;;;;;5031855;28;20241;-77
2022/08/12 12:23:36;;;;;;;7.60;5.45;;;13.50;99.90;;;;;;5031353;28;20217;-76
2022/08/12 12:26:08;;;;;;;6.78;5.40;;;13.40;99.90;;;;;;5028501;28;20202;-76
2022/08/12 12:28:41;;;;;;;7.15;5.20;;;13.50;99.90;;;;;;5029311;28;20198;-76
2022/08/12 12:31:12;;;;;;;7.78;5.40;;;13.40;99.90;;;;;;5037491;28;20205;-73
2022/08/12 12:33:42;;;;;;;7.55;5.65;;;13.40;99.90;;;;;;5041965;28;20198;-75
2022/08/12 12:36:13;;;;;;;9.40;6.20;;;13.40;99.90;;;;;;5032851;28;20240;-77
2022/08/12 12:38:44;;;;;;;8.45;6.07;;;13.50;99.90;;;;;;5038392;28;20230;-77
2022/08/12 12:41:15;;;;;;;8.20;6.13;;;13.40;99.90;;;;;;5028812;28;20201;-73
2022/08/12 12:43:48;;;;;;;7.88;5.80;;;13.40;99.90;;;;;;5028426;28;20197;-77
2022/08/12 12:46:21;;;;;;;6.38;4.88;;;13.40;99.90;;;;;;5030563;28;20202;-77
2022/08/12 12:48:52;;;;;;;6.15;5.00;;;13.40;99.90;;;;;;5023839;28;20199;-73
2022/08/12 12:51:22;;;;;;;6.10;4.80;;;13.40;99.90;;;;;;5039066;28;20193;-77
2022/08/12 12:53:54;;;;;;;5.45;4.43;;;13.40;99.90;;;;;;5038760;28;20543;-77
2022/08/12 12:56:26;;;;;;;5.28;4.45;;;13.50;99.90;;;;;;5040488;28;20217;-76
2022/08/12 12:58:59;;;;;;;5.45;4.50;;;13.50;99.90;;;;;;5038507;28;20210;-77
2022/08/12 13:01:30;;;;;;;6.15;4.70;;;13.40;99.90;;;;;;5029742;28;20226;-77
2022/08/12 13:04:01;;;;;;;5.60;4.72;;;13.50;99.90;;;;;;5038852;28;20190;-77
2022/08/12 13:06:32;;;;;;;4.93;4.43;;;13.50;99.90;;;;;;5044771;28;20208;-76
2022/08/12 13:09:03;;;;;;;5.47;4.30;;;13.50;99.90;;;;;;5029778;28;20208;-76
2022/08/12 13:11:34;;;;;;;4.60;4.10;;;13.50;99.90;;;;;;5037456;28;20198;-77
2022/08/12 13:14:07;;;;;;;5.00;4.50;;;13.50;99.90;;;;;;5036354;28;20202;-76
2022/08/12 13:16:39;;;;;;;6.07;4.53;;;13.50;99.90;;;;;;5025610;28;20233;-76
2022/08/12 13:19:09;;;;;;;5.80;4.82;;;13.50;99.90;;;;;;5030060;28;20205;-76
2022/08/12 13:22:15;;;;;;;4.97;4.47;;;13.50;99.90;;;;;;5020326;28;20195;-76
2022/08/12 13:24:32;;;;;;;5.72;5.07;;;13.50;99.90;;;;;;5030489;28;20202;-77
2022/08/12 13:27:03;;;;;;;5.45;4.25;;;13.50;99.90;;;;;;5032486;28;20198;-78
2022/08/12 13:29:37;;;;;;;5.20;4.55;;;13.50;99.90;;;;;;5028677;28;20261;-77
2022/08/12 13:32:08;;;;;;;5.30;4.80;;;13.50;99.90;;;;;;5026987;28;20269;-77
2022/08/12 13:34:39;;;;;;;5.47;4.55;;;13.50;99.90;;;;;;5029915;28;20226;-77
2022/08/12 13:37:10;;;;;;;5.40;4.40;;;13.50;99.90;;;;;;5030945;28;20214;-77
2022/08/12 13:39:40;;;;;;;6.07;4.32;;;13.50;99.90;;;;;;5024164;28;20269;-76
2022/08/12 13:42:12;;;;;;;4.93;4.43;;;13.50;99.90;;;;;;5025667;28;20198;-77
2022/08/12 13:44:45;;;;;;;6.10;4.32;;;13.50;99.90;;;;;;5025698;28;20760;-78
2022/08/12 13:47:16;;;;;;;5.30;4.55;;;13.50;99.90;;;;;;5027129;28;20202;-77
2022/08/12 13:49:47;;;;;;;6.18;4.82;;;13.50;99.90;;;;;;5023322;28;20202;-74
2022/08/12 13:52:19;;;;;;;7.55;4.95;;;13.50;99.90;;;;;;5029541;28;20202;-77
2022/08/12 13:54:51;;;;;;;5.43;4.35;;;13.60;99.90;;;;;;5027188;28;20251;-77
2022/08/12 13:57:24;;;;;;;4.85;4.35;;;13.50;99.90;;;;;;5028773;28;20237;-76
2022/08/12 13:59:57;;;;;;;5.00;4.50;;;13.50;99.90;;;;;;5022232;28;20248;-76
2022/08/12 14:02:27;;;;;;;5.15;4.63;;;13.50;99.90;;;;;;5030598;28;20202;-78
2022/08/12 14:05:01;;;;;;;5.40;4.65;;;13.50;99.90;;;;;;5028596;28;20209;-78
2022/08/12 14:07:32;;;;;;;5.78;4.53;;;13.50;99.90;;;;;;5024430;28;20202;-77
2022/08/12 14:12:49;;;;;;;5.00;4.50;;;13.50;99.90;;;;;;5031379;28;20209;-78
2022/08/12 14:15:22;;;;;;;6.35;4.90;;;13.50;99.90;;;;;;5033831;28;20190;-78
2022/08/12 14:17:53;;;;;;;7.07;5.35;;;13.50;99.90;;;;;;5039461;28;20308;-77
2022/08/12 14:20:24;;;;;;;6.93;4.85;;;13.50;99.90;;;;;;5023155;28;20191;-77
2022/08/12 14:22:58;;;;;;;6.65;5.30;;;13.50;99.90;;;;;;5029286;28;20551;-77
2022/08/12 14:25:29;;;;;;;7.38;5.53;;;13.50;99.90;;;;;;5023460;28;20198;-75
2022/08/12 14:28:10;;;;;;;6.38;5.38;;;13.50;99.90;;;;;;5024439;28;20205;-78
2022/08/12 14:30:52;;;;;;;7.00;5.10;;;13.50;99.90;;;;;;5028366;28;20208;-78
2022/08/12 14:33:24;;;;;;;6.28;5.25;;;13.50;99.90;;;;;;5025464;28;20226;-78
2022/08/12 14:35:55;;;;;;;6.80;5.10;;;13.50;99.90;;;;;;5032375;28;20741;-78
2022/08/12 14:38:28;;;;;;;7.07;4.80;;;13.50;99.90;;;;;;5029075;28;20230;-77
2022/08/12 14:41:00;;;;;;;6.68;4.82;;;13.50;99.90;;;;;;5024712;28;20673;-77
2022/08/12 14:43:32;;;;;;;7.60;5.13;;;13.40;99.90;;;;;;5029931;28;20216;-77
2022/08/12 14:46:05;;;;;;;6.10;4.90;;;13.40;99.90;;;;;;5030193;28;20204;-77
2022/08/12 14:48:37;;;;;;;5.13;4.63;;;13.40;99.90;;;;;;5034390;28;20200;-78
2022/08/12 14:51:08;;;;;;;5.50;4.40;;;13.40;99.90;;;;;;5031791;28;20671;-75
2022/08/12 14:53:40;;;;;;;4.60;4.10;;;13.40;99.90;;;;;;5030829;28;20206;-78
2022/08/12 14:56:11;;;;;;;4.97;4.40;;;13.40;99.90;;;;;;5028169;28;20215;-77
2022/08/12 15:01:37;;;;;;;6.85;4.80;;;13.40;99.90;;;;;;5029491;28;20203;-78
2022/08/12 15:01:40;;;;;;;5.35;4.70;;;13.40;99.90;;;;;;5032489;28;20194;-78
2022/08/12 15:04:12;;;;;;;6.43;5.05;;;13.40;99.90;;;;;;5045071;28;20241;-77
2022/08/12 15:06:46;;;;;;;6.75;5.07;;;13.40;99.90;;;;;;5040319;28;20289;-77
2022/08/12 15:09:17;;;;;;;7.97;5.30;;;13.40;99.90;;;;;;5029212;28;20697;-77
2022/08/12 15:11:48;;;;;;;7.07;5.28;;;13.40;99.90;;;;;;5033670;28;20198;-77